Time;durP1;ratioP1;P1;durP2;ratioP2;P2;SDS_P1;SDS_P2;PMS_P1;PMS_P2;Temp;Humidity;BMP_temperature;BMP_pressure;BME280_temperature;BME280_humidity;BME280_pressure;Samples;Min_cycle;Max_cycle;Signal;HPM_P1;HPM_P2
2023/01/15 00:01:40;;;;;;;38.40;14.68;;;;;;;3.32;66.11;101762.28;1879867;76;21046;-61
2023/01/15 00:04:11;;;;;;;29.80;14.50;;;;;;;3.29;66.11;101757.94;1897610;73;21524;-58
2023/01/15 00:06:42;;;;;;;30.90;13.78;;;;;;;3.25;66.21;101753.58;1918618;73;21096;-61
2023/01/15 00:09:13;;;;;;;31.70;16.67;;;;;;;3.26;66.13;101757.91;1907452;73;21028;-57
2023/01/15 00:11:42;;;;;;;28.77;12.15;;;;;;;3.22;66.48;101753.10;1905290;75;21030;-60
2023/01/15 00:14:11;;;;;;;34.65;13.75;;;;;;;3.22;66.51;101758.75;1905947;74;21122;-60
2023/01/15 00:16:40;;;;;;;45.05;15.90;;;;;;;3.25;66.42;101767.45;1910335;75;20999;-60
2023/01/15 00:19:11;;;;;;;25.52;12.63;;;;;;;3.28;66.34;101771.80;1912551;75;21047;-60
2023/01/15 00:21:39;;;;;;;33.38;13.72;;;;;;;3.27;66.43;101768.77;1913702;75;21152;-60
2023/01/15 00:29:42;;;;;;;30.68;13.22;;;;;;;3.28;66.47;101765.28;1911317;75;21085;-61
2023/01/15 00:32:12;;;;;;;31.55;14.75;;;;;;;3.31;66.58;101769.23;1914182;75;21563;-66
2023/01/15 00:34:41;;;;;;;32.90;13.65;;;;;;;3.35;66.50;101772.73;1913090;75;21096;-60
2023/01/15 00:37:09;;;;;;;44.38;15.70;;;;;;;3.40;66.50;101766.69;1908306;75;21042;-64
2023/01/15 00:39:38;;;;;;;41.63;17.42;;;;;;;3.41;66.48;101774.95;1917499;73;21133;-59
2023/01/15 00:42:06;;;;;;;44.77;17.00;;;;;;;3.41;66.47;101760.64;1920546;74;21038;-60
2023/01/15 00:44:35;;;;;;;50.33;19.15;;;;;;;3.45;66.46;101770.20;1920570;75;21532;-60
2023/01/15 00:47:05;;;;;;;42.20;16.05;;;;;;;3.50;66.44;101773.27;1920518;74;21523;-61
2023/01/15 00:49:33;;;;;;;33.78;15.48;;;;;;;3.52;66.30;101776.30;1920487;75;21518;-64
2023/01/15 00:52:02;;;;;;;28.35;13.43;;;;;;;3.51;66.24;101775.02;1923535;74;21031;-61
2023/01/15 00:54:35;;;;;;;29.85;14.63;;;;;;;3.50;66.25;101783.68;1912316;74;21505;-61
2023/01/15 00:57:03;;;;;;;33.05;15.48;;;;;;;3.40;66.50;101784.92;1913206;75;21403;-61
2023/01/15 00:59:32;;;;;;;32.58;13.55;;;;;;;3.32;66.71;101780.50;1914185;75;21039;-65
2023/01/15 01:02:01;;;;;;;44.95;17.20;;;;;;;3.19;66.94;101777.83;1914952;75;21104;-62
2023/01/15 01:04:29;;;;;;;37.65;15.63;;;;;;;3.16;67.00;101784.30;1915142;74;21135;-61
2023/01/15 01:06:58;;;;;;;36.45;16.17;;;;;;;3.08;67.04;101791.15;1916410;75;21093;-59
2023/01/15 01:09:27;;;;;;;33.45;14.98;;;;;;;3.05;67.08;101788.54;1920552;75;21050;-62
2023/01/15 01:11:57;;;;;;;39.10;15.55;;;;;;;3.01;67.04;101794.14;1923199;74;21497;-60
2023/01/15 01:14:25;;;;;;;50.80;16.60;;;;;;;2.96;67.14;101794.53;1936629;74;21689;-61
2023/01/15 01:16:56;;;;;;;41.10;16.30;;;;;;;2.97;67.10;101794.98;1934303;73;21081;-61
2023/01/15 01:19:26;;;;;;;47.00;16.20;;;;;;;2.95;67.24;101802.31;1919144;75;21086;-58
2023/01/15 01:21:54;;;;;;;41.88;16.27;;;;;;;2.92;67.40;101803.17;1919049;75;21007;-58
2023/01/15 01:24:24;;;;;;;37.83;15.90;;;;;;;2.88;67.61;101801.41;1920414;75;21109;-57
2023/01/15 01:27:00;;;;;;;47.20;16.02;;;;;;;2.88;67.70;101806.60;1920499;74;21038;-61
2023/01/15 01:29:44;;;;;;;38.83;12.95;;;;;;;2.86;67.81;101803.98;1920072;74;21197;-59
2023/01/15 01:32:16;;;;;;;41.53;15.10;;;;;;;2.89;67.70;101801.39;1916975;75;21078;-49
2023/01/15 01:34:44;;;;;;;36.25;14.40;;;;;;;2.84;67.79;101803.09;1919792;75;21034;-48
2023/01/15 01:37:13;;;;;;;41.92;15.30;;;;;;;2.87;67.81;101808.75;1913455;75;21185;-51
2023/01/15 01:39:41;;;;;;;37.17;14.70;;;;;;;2.83;67.90;101808.28;1887027;75;21099;-53
2023/01/15 01:42:12;;;;;;;39.33;15.25;;;;;;;2.79;68.05;101812.58;1918274;74;21612;-54
2023/01/15 01:44:48;;;;;;;41.98;15.05;;;;;;;2.82;68.09;101813.92;1914526;73;21210;-58
2023/01/15 01:47:21;;;;;;;38.98;15.18;;;;;;;2.80;68.09;101818.64;1913547;74;21039;-57
2023/01/15 01:49:55;;;;;;;37.93;14.83;;;;;;;2.82;68.08;101807.82;1879546;76;21193;-58
2023/01/15 01:52:29;;;;;;;32.05;13.22;;;;;;;2.83;68.01;101809.58;1922383;74;21106;-60
2023/01/15 01:54:58;;;;;;;43.02;12.90;;;;;;;2.85;67.94;101810.47;1921146;74;21180;-58
2023/01/15 01:57:27;;;;;;;36.45;12.88;;;;;;;2.82;68.07;101807.82;1923950;74;21520;-60
2023/01/15 01:59:59;;;;;;;41.75;14.43;;;;;;;2.78;68.20;101809.52;1923879;74;21610;-60
2023/01/15 02:02:28;;;;;;;41.85;13.10;;;;;;;2.81;68.07;101804.80;1922650;74;21082;-60
2023/01/15 02:04:56;;;;;;;28.02;10.03;;;;;;;2.89;67.90;101803.98;1922531;74;21438;-59
2023/01/15 02:07:26;;;;;;;33.98;11.35;;;;;;;2.93;67.78;101801.43;1928519;74;21093;-60
2023/01/15 02:09:55;;;;;;;28.35;10.10;;;;;;;2.97;67.60;101801.48;1936504;73;21474;-60
2023/01/15 02:12:26;;;;;;;34.20;12.93;;;;;;;3.01;67.49;101803.69;1902992;74;21100;-61
2023/01/15 02:14:59;;;;;;;33.78;11.28;;;;;;;3.05;67.49;101803.72;1847196;77;21146;-61
2023/01/15 02:17:31;;;;;;;37.08;13.18;;;;;;;3.05;67.60;101807.62;1897899;75;21112;-59
2023/01/15 02:20:18;;;;;;;32.05;10.53;;;;;;;3.11;67.61;101810.70;1897430;75;21207;-60
2023/01/15 02:23:07;;;;;;;28.07;10.63;;;;;;;3.15;67.56;101810.30;1915048;75;21570;-59
2023/01/15 02:25:51;;;;;;;32.78;9.25;;;;;;;3.15;67.60;101810.30;1913666;75;21114;-61
2023/01/15 02:28:26;;;;;;;31.27;10.00;;;;;;;3.09;67.71;101810.69;1913124;73;21163;-62
2023/01/15 02:30:58;;;;;;;24.57;10.38;;;;;;;3.11;67.62;101818.95;1923283;74;21025;-62
2023/01/15 02:33:32;;;;;;;30.10;11.65;;;;;;;3.13;67.75;101822.44;1883816;76;21199;-57
2023/01/15 02:36:05;;;;;;;26.75;10.10;;;;;;;3.13;67.81;101817.23;1918378;75;21129;-56
2023/01/15 02:38:35;;;;;;;25.52;9.00;;;;;;;3.14;67.69;101816.39;1922234;74;21119;-55
2023/01/15 02:41:07;;;;;;;24.00;10.25;;;;;;;3.15;67.62;101822.02;1882347;75;21203;-57
2023/01/15 02:43:39;;;;;;;32.73;9.83;;;;;;;3.15;67.64;101829.38;1909845;74;21129;-56
2023/01/15 02:46:09;;;;;;;30.80;9.68;;;;;;;3.17;67.54;101830.30;1924396;74;21058;-56
2023/01/15 02:48:40;;;;;;;28.60;9.20;;;;;;;3.14;67.77;101825.49;1875496;75;21093;-56
2023/01/15 02:51:11;;;;;;;27.95;8.85;;;;;;;3.12;67.84;101828.48;1880329;75;21112;-56
2023/01/15 02:53:43;;;;;;;26.02;8.95;;;;;;;3.14;67.92;101834.61;1888691;75;21130;-53
2023/01/15 02:56:19;;;;;;;27.58;8.53;;;;;;;3.12;68.07;101836.29;1903222;74;21069;-56
2023/01/15 02:58:52;;;;;;;25.82;8.53;;;;;;;3.13;68.09;101835.45;1874566;75;21095;-56
2023/01/15 03:01:24;;;;;;;24.82;9.05;;;;;;;3.06;68.23;101839.30;1899101;75;21094;-55
2023/01/15 03:04:01;;;;;;;25.62;8.98;;;;;;;3.03;68.42;101839.27;1882048;75;21119;-55
2023/01/15 03:06:48;;;;;;;24.35;8.68;;;;;;;3.01;68.55;101838.38;1890954;74;21084;-56
2023/01/15 03:09:19;;;;;;;25.68;8.95;;;;;;;3.04;68.61;101845.33;1864829;75;21120;-55
2023/01/15 03:12:00;;;;;;;27.80;8.08;;;;;;;3.05;68.73;101844.05;1873851;76;21422;-56
2023/01/15 03:14:32;;;;;;;33.85;8.08;;;;;;;3.02;68.82;101847.91;1888337;75;21049;-54
2023/01/15 03:17:03;;;;;;;35.33;10.13;;;;;;;3.02;68.97;101843.15;1890014;75;21104;-53
2023/01/15 03:19:49;;;;;;;25.68;8.30;;;;;;;3.05;68.99;101845.35;1902910;75;21009;-56
2023/01/15 03:22:32;;;;;;;29.23;8.00;;;;;;;3.09;68.94;101850.16;1879441;75;21250;-56
2023/01/15 03:25:07;;;;;;;22.62;7.95;;;;;;;3.09;68.92;101850.16;1905692;75;21090;-56
2023/01/15 03:27:37;;;;;;;21.80;7.03;;;;;;;3.07;69.01;101857.95;1905208;75;21497;-55
2023/01/15 03:30:12;;;;;;;20.70;8.18;;;;;;;3.09;68.97;101852.77;1905790;75;21054;-55
2023/01/15 03:32:41;;;;;;;22.13;8.50;;;;;;;3.12;68.85;101854.51;1873775;76;21547;-56
2023/01/15 03:35:28;;;;;;;28.25;8.78;;;;;;;3.17;68.79;101858.93;1898603;75;21098;-58
2023/01/15 03:37:57;;;;;;;26.12;9.18;;;;;;;3.20;68.65;101857.64;1873620;76;21057;-56
2023/01/15 03:40:26;;;;;;;28.38;9.65;;;;;;;3.23;68.45;101859.41;1873640;75;21032;-59
2023/01/15 03:45:50;;;;;;;28.07;8.83;;;;;;;3.20;68.50;101858.94;1899112;75;21027;-56
2023/01/15 03:48:29;;;;;;;19.52;7.10;;;;;;;3.16;68.47;101864.11;1899031;75;21144;-57
2023/01/15 03:51:17;;;;;;;15.30;6.42;;;;;;;3.14;68.41;101869.73;1889627;75;21497;-56
2023/01/15 03:53:52;;;;;;;28.67;7.97;;;;;;;3.05;68.59;101874.41;1898684;75;21046;-57
2023/01/15 03:56:23;;;;;;;24.10;7.47;;;;;;;2.93;68.92;101871.67;1899738;75;21504;-58
2023/01/15 03:59:10;;;;;;;28.17;10.58;;;;;;;2.94;69.05;101879.50;1895939;75;21046;-56
2023/01/15 04:01:46;;;;;;;24.45;7.58;;;;;;;2.93;68.99;101880.34;1893670;75;21552;-56
2023/01/15 04:04:15;;;;;;;23.95;7.37;;;;;;;2.98;68.96;101881.27;1900383;75;21456;-56
2023/01/15 04:06:46;;;;;;;25.48;8.15;;;;;;;3.02;69.00;101883.04;1899444;75;21120;-57
2023/01/15 04:09:15;;;;;;;20.32;6.75;;;;;;;2.99;69.13;101885.63;1900448;75;21115;-56
2023/01/15 04:11:46;;;;;;;24.20;7.65;;;;;;;3.02;69.06;101889.55;1900230;75;21112;-57
2023/01/15 04:14:15;;;;;;;21.05;7.08;;;;;;;3.05;69.04;101885.69;1898530;75;21108;-54
2023/01/15 04:16:45;;;;;;;20.75;7.15;;;;;;;3.08;68.95;101890.94;1897203;75;21526;-55
2023/01/15 04:19:14;;;;;;;26.27;7.53;;;;;;;3.16;68.76;101903.16;1898450;75;21469;-56
2023/01/15 04:21:44;;;;;;;22.65;8.73;;;;;;;3.20;68.56;101904.48;1895778;75;21090;-55
2023/01/15 04:24:13;;;;;;;23.90;7.85;;;;;;;3.19;68.60;101905.77;1898996;75;21116;-55
2023/01/15 04:26:42;;;;;;;30.97;8.58;;;;;;;3.12;68.83;101908.75;1900407;75;21180;-54
2023/01/15 04:29:10;;;;;;;23.30;7.33;;;;;;;3.14;68.83;101914.84;1900456;75;21035;-55
2023/01/15 04:31:39;;;;;;;31.55;7.95;;;;;;;3.17;68.69;101916.19;1900362;75;21059;-55
2023/01/15 04:34:08;;;;;;;21.95;6.78;;;;;;;3.21;68.57;101918.36;1899080;75;21132;-55
2023/01/15 04:36:37;;;;;;;22.90;8.35;;;;;;;3.24;68.47;101917.11;1899054;75;21613;-56
2023/01/15 04:39:06;;;;;;;17.75;6.70;;;;;;;3.25;68.45;101908.45;1900295;75;21182;-56
2023/01/15 04:44:25;;;;;;;22.52;7.62;;;;;;;3.26;68.51;101911.08;1900492;75;21537;-56
2023/01/15 04:46:53;;;;;;;23.92;7.87;;;;;;;3.23;68.45;101911.47;1900237;74;21042;-56
2023/01/15 04:49:21;;;;;;;23.92;8.03;;;;;;;3.21;68.54;101916.66;1900355;75;21512;-56
2023/01/15 04:51:50;;;;;;;29.30;7.70;;;;;;;3.22;68.66;101912.31;1899655;75;21037;-57
2023/01/15 04:54:21;;;;;;;23.20;8.38;;;;;;;3.23;68.77;101915.37;1899293;75;21117;-56
2023/01/15 04:56:52;;;;;;;25.40;8.10;;;;;;;3.24;68.71;101910.59;1900273;75;21003;-57
2023/01/15 04:59:23;;;;;;;33.40;9.53;;;;;;;3.20;68.81;101911.44;1900243;75;21021;-55
2023/01/15 05:01:53;;;;;;;26.17;9.20;;;;;;;3.17;68.93;101908.78;1899467;75;21079;-56
2023/01/15 05:04:22;;;;;;;22.37;8.15;;;;;;;3.14;69.16;101910.94;1900463;75;21039;-56
2023/01/15 05:06:52;;;;;;;31.85;9.73;;;;;;;3.15;69.02;101911.37;1900337;75;21047;-56
2023/01/15 05:09:20;;;;;;;27.50;10.08;;;;;;;3.18;68.82;101919.66;1900355;75;21115;-57
2023/01/15 05:11:50;;;;;;;27.50;10.03;;;;;;;3.19;68.78;101918.78;1889685;75;21037;-56
2023/01/15 05:14:19;;;;;;;39.92;14.15;;;;;;;3.21;68.75;101924.87;1893591;75;21288;-56
2023/01/15 05:16:47;;;;;;;51.90;19.32;;;;;;;3.24;68.61;101935.33;1890517;75;21141;-57
2023/01/15 05:19:16;;;;;;;37.78;13.48;;;;;;;3.26;68.54;101934.91;1875004;75;21105;-57
2023/01/15 05:21:45;;;;;;;28.75;10.90;;;;;;;3.24;68.52;101936.62;1897763;75;21539;-56
2023/01/15 05:24:17;;;;;;;31.27;9.10;;;;;;;3.21;68.71;101945.70;1898864;75;21110;-58
2023/01/15 05:26:45;;;;;;;29.77;9.15;;;;;;;3.21;68.61;101952.20;1897749;75;21112;-58
2023/01/15 05:29:14;;;;;;;27.87;9.73;;;;;;;3.18;68.49;101949.16;1889636;75;21113;-52
2023/01/15 05:31:43;;;;;;;24.02;10.68;;;;;;;3.15;68.49;101945.20;1870183;75;21547;-56
2023/01/15 05:34:12;;;;;;;26.07;10.65;;;;;;;3.12;68.52;101956.91;1899183;75;21332;-57
2023/01/15 05:36:41;;;;;;;24.63;10.03;;;;;;;3.09;68.51;101948.61;1882492;75;21101;-56
2023/01/15 05:39:10;;;;;;;32.55;9.85;;;;;;;3.08;68.52;101949.89;1898612;75;21022;-57
2023/01/15 05:41:51;;;;;;;33.45;12.37;;;;;;;3.08;68.69;101945.58;1898524;75;21092;-57
2023/01/15 05:44:28;;;;;;;30.70;12.73;;;;;;;3.15;68.68;101952.15;1898543;75;21038;-57
2023/01/15 05:47:06;;;;;;;35.23;12.73;;;;;;;3.16;68.80;101942.20;1868789;75;21025;-57
2023/01/15 05:49:30;;;;;;;38.13;12.45;;;;;;;3.19;68.94;101944.81;1865381;77;21041;-57
2023/01/15 05:52:00;;;;;;;39.92;14.18;;;;;;;3.23;68.92;101951.82;1866495;77;21037;-57
2023/01/15 05:54:32;;;;;;;45.70;16.15;;;;;;;3.29;68.87;101957.08;1866495;77;21157;-58
2023/01/15 05:57:01;;;;;;;36.42;16.45;;;;;;;3.33;68.70;101956.25;1872917;75;21570;-57
2023/01/15 05:59:32;;;;;;;31.93;13.53;;;;;;;3.35;68.50;101962.78;1866605;77;21445;-57
2023/01/15 06:02:01;;;;;;;38.98;14.70;;;;;;;3.35;68.48;101959.73;1877346;75;21131;-58
2023/01/15 06:04:30;;;;;;;40.80;14.38;;;;;;;3.37;68.49;101968.44;1868763;75;21014;-57
2023/01/15 06:06:59;;;;;;;29.55;13.38;;;;;;;3.36;68.61;101966.70;1881311;75;21045;-57
2023/01/15 06:09:28;;;;;;;34.65;10.03;;;;;;;3.42;68.57;101975.00;1893130;74;21038;-57
2023/01/15 06:11:57;;;;;;;27.90;8.75;;;;;;;3.50;68.54;101975.08;1873643;75;21128;-57
2023/01/15 06:14:25;;;;;;;29.30;11.53;;;;;;;3.53;68.46;101969.47;1866636;77;21112;-58
2023/01/15 06:16:54;;;;;;;37.80;12.20;;;;;;;3.48;68.64;101972.45;1866473;77;21025;-59
2023/01/15 06:19:23;;;;;;;32.73;12.40;;;;;;;3.50;68.75;101976.37;1868824;75;21085;-58
2023/01/15 06:21:52;;;;;;;37.98;12.28;;;;;;;3.55;68.77;101975.56;1867439;75;21208;-58
2023/01/15 06:24:20;;;;;;;24.50;10.90;;;;;;;3.59;68.82;101972.56;1873372;75;21119;-58
2023/01/15 06:26:49;;;;;;;36.98;13.20;;;;;;;3.65;68.85;101982.63;1884646;75;21159;-58
2023/01/15 06:29:19;;;;;;;35.05;11.65;;;;;;;3.73;68.88;101977.48;1866670;77;21045;-56
2023/01/15 06:31:48;;;;;;;38.13;14.68;;;;;;;3.84;68.68;101978.45;1884712;75;21793;-60
2023/01/15 06:34:16;;;;;;;43.75;13.93;;;;;;;3.94;68.38;101975.91;1876138;75;21480;-58
2023/01/15 06:36:45;;;;;;;40.28;14.70;;;;;;;4.01;68.17;101969.89;1900018;75;21033;-57
2023/01/15 06:39:14;;;;;;;40.23;14.47;;;;;;;4.10;67.95;101979.53;1900302;75;21085;-56
2023/01/15 06:47:20;;;;;;;28.65;11.85;;;;;;;4.23;67.43;101980.91;1888414;75;21068;-56
2023/01/15 06:49:51;;;;;;;23.47;8.93;;;;;;;4.26;67.36;101980.09;1878297;75;21378;-56
2023/01/15 06:52:19;;;;;;;28.02;10.90;;;;;;;4.32;67.32;101979.25;1883477;75;21107;-57
2023/01/15 06:54:48;;;;;;;20.57;8.25;;;;;;;4.39;67.27;101990.14;1868162;77;21071;-57
2023/01/15 06:57:21;;;;;;;19.57;7.60;;;;;;;4.47;67.20;101982.39;1897037;75;21924;-56
2023/01/15 06:59:50;;;;;;;19.65;8.70;;;;;;;4.53;67.09;101983.27;1893534;75;21092;-53
2023/01/15 07:02:20;;;;;;;22.95;7.50;;;;;;;4.53;66.87;101978.06;1897852;75;21034;-55
2023/01/15 07:04:49;;;;;;;25.82;7.65;;;;;;;4.55;66.82;101982.84;1898394;75;21091;-57
2023/01/15 07:07:19;;;;;;;23.50;7.85;;;;;;;4.59;66.78;101980.72;1899678;75;21092;-57
2023/01/15 07:09:48;;;;;;;18.27;6.72;;;;;;;4.61;66.67;101981.60;1886146;75;21550;-57
2023/01/15 07:12:17;;;;;;;20.43;7.17;;;;;;;4.56;66.39;101985.05;1868008;77;21037;-57
2023/01/15 07:14:46;;;;;;;18.15;7.10;;;;;;;4.52;66.23;101984.16;1868173;77;21053;-58
2023/01/15 07:17:15;;;;;;;21.85;7.83;;;;;;;4.53;66.16;101979.36;1868057;77;21480;-58
2023/01/15 07:19:44;;;;;;;17.82;7.30;;;;;;;4.57;66.24;101979.81;1861917;77;21673;-58
2023/01/15 07:22:13;;;;;;;26.23;8.18;;;;;;;4.69;66.15;101983.38;1861387;77;21148;-58
2023/01/15 07:24:42;;;;;;;15.78;6.42;;;;;;;4.77;66.21;101985.58;1861432;77;21124;-58
2023/01/15 07:27:10;;;;;;;16.12;6.60;;;;;;;4.89;66.29;101984.34;1865871;75;21006;-59
2023/01/15 07:29:39;;;;;;;18.32;6.17;;;;;;;5.08;66.13;101983.12;1868089;77;21489;-59
2023/01/15 07:32:08;;;;;;;25.12;6.85;;;;;;;5.26;65.72;101981.87;1867913;77;21037;-59
2023/01/15 07:34:36;;;;;;;16.05;6.45;;;;;;;5.41;65.47;101983.20;1868310;77;21010;-58
2023/01/15 07:37:05;;;;;;;18.45;7.15;;;;;;;5.56;65.24;101981.50;1882089;75;21508;-60
2023/01/15 07:39:34;;;;;;;16.45;6.95;;;;;;;5.83;64.89;101979.36;1873206;75;21195;-59
2023/01/15 07:50:26;;;;;;;21.48;5.85;;;;;;;8.24;61.54;101969.53;1867193;77;21598;-54
2023/01/15 07:52:55;;;;;;;19.65;6.28;;;;;;;9.11;60.09;101970.80;1867391;77;21468;-52
2023/01/15 07:55:24;;;;;;;18.07;6.10;;;;;;;10.16;58.52;101967.42;1894128;75;21166;-59
2023/01/15 07:57:53;;;;;;;16.50;5.83;;;;;;;11.30;56.53;101968.25;1899539;75;21480;-55
2023/01/15 08:00:24;;;;;;;18.45;6.65;;;;;;;12.11;55.01;101966.78;1893499;75;21579;-58
2023/01/15 08:02:57;;;;;;;16.17;5.40;;;;;;;12.54;53.64;101965.19;1865725;77;21014;-57
2023/01/15 08:05:23;;;;;;;17.40;6.67;;;;;;;12.32;53.87;101968.86;1865600;75;21022;-59
2023/01/15 08:07:51;;;;;;;17.48;6.75;;;;;;;12.05;53.75;101977.05;1865773;77;21178;-55
2023/01/15 08:10:20;;;;;;;13.88;5.05;;;;;;;11.75;53.52;101970.73;1865588;76;21119;-56
2023/01/15 08:15:42;;;;;;;14.50;5.58;;;;;;;11.70;52.89;101969.52;1865625;77;21108;-55
2023/01/15 08:18:11;;;;;;;15.53;5.60;;;;;;;12.30;51.74;101964.08;1865632;77;21014;-57
2023/01/15 08:20:42;;;;;;;12.40;5.47;;;;;;;13.43;50.30;101959.53;1865720;77;21103;-57
2023/01/15 08:23:12;;;;;;;14.95;5.25;;;;;;;14.36;48.49;101956.84;1865791;77;21042;-58
2023/01/15 08:25:43;;;;;;;14.93;4.83;;;;;;;14.43;47.63;101951.73;1866277;75;21484;-57
2023/01/15 08:28:13;;;;;;;11.55;4.95;;;;;;;14.62;47.50;101952.42;1873585;75;21187;-58
2023/01/15 08:30:43;;;;;;;18.27;5.67;;;;;;;15.20;46.75;101944.91;1877993;75;21127;-57
2023/01/15 08:33:12;;;;;;;13.48;5.20;;;;;;;15.70;45.77;101942.47;1899720;75;21041;-58
2023/01/15 08:35:41;;;;;;;9.93;4.28;;;;;;;16.01;44.73;101937.23;1895659;75;21056;-57
2023/01/15 08:38:09;;;;;;;11.78;4.47;;;;;;;16.73;43.50;101933.18;1876844;75;21127;-58
2023/01/15 08:40:57;;;;;;;11.65;4.50;;;;;;;17.19;42.22;101939.03;1867345;77;21100;-58
2023/01/15 08:43:08;;;;;;;11.33;4.35;;;;;;;17.67;41.13;101930.91;1863045;76;21100;-57
2023/01/15 08:45:37;;;;;;;11.50;5.65;;;;;;;18.09;40.46;101928.82;1896097;74;21106;-65
2023/01/15 08:48:05;;;;;;;11.12;5.00;;;;;;;18.35;39.79;101920.78;1908619;74;21064;-65
2023/01/15 08:50:34;;;;;;;10.45;4.55;;;;;;;18.71;39.06;101915.28;1885763;75;21612;-63
2023/01/15 08:53:03;;;;;;;10.88;4.37;;;;;;;19.08;38.37;101911.94;1910226;73;21029;-64
2023/01/15 08:55:31;;;;;;;15.60;5.28;;;;;;;19.54;37.75;101907.11;1902804;73;21141;-59
2023/01/15 08:58:00;;;;;;;18.98;8.15;;;;;;;20.03;36.80;101897.55;1906677;74;21145;-59
2023/01/15 09:00:29;;;;;;;25.05;11.38;;;;;;;20.17;36.46;101889.16;1938067;74;21035;-55
2023/01/15 09:02:59;;;;;;;17.82;8.25;;;;;;;20.28;35.76;101889.34;1930532;74;21043;-58
2023/01/15 09:05:29;;;;;;;22.93;11.83;;;;;;;20.09;35.55;101883.43;1890388;75;21051;-59
2023/01/15 09:07:57;;;;;;;20.10;8.75;;;;;;;19.87;35.49;101886.06;1917067;74;21050;-60
2023/01/15 09:10:26;;;;;;;15.72;8.48;;;;;;;19.81;35.20;101875.27;1887668;75;21022;-60
2023/01/15 09:12:55;;;;;;;21.75;8.95;;;;;;;19.71;34.64;101874.53;1924436;74;21025;-59
2023/01/15 09:15:23;;;;;;;15.95;7.72;;;;;;;19.55;34.37;101880.80;1950247;73;21032;-60
2023/01/15 09:17:52;;;;;;;24.05;8.48;;;;;;;19.84;34.18;101879.55;1930216;74;21120;-60
2023/01/15 09:20:20;;;;;;;16.50;7.62;;;;;;;20.06;33.96;101873.27;1912610;73;21086;-62
2023/01/15 09:22:49;;;;;;;20.52;8.83;;;;;;;20.36;33.53;101876.38;1908737;75;21078;-60
2023/01/15 09:25:22;;;;;;;15.75;6.15;;;;;;;20.48;33.30;101881.91;1913497;75;21124;-59
2023/01/15 09:27:49;;;;;;;15.55;6.30;;;;;;;20.40;33.12;101881.91;1907924;75;21047;-61
2023/01/15 09:30:20;;;;;;;12.33;5.28;;;;;;;20.46;32.67;101877.98;1908361;75;21102;-61
2023/01/15 09:32:49;;;;;;;12.53;5.90;;;;;;;20.40;32.63;101879.23;1902790;75;21031;-60
2023/01/15 09:35:18;;;;;;;13.72;5.08;;;;;;;20.73;32.58;101869.19;1907752;75;21030;-58
2023/01/15 09:37:52;;;;;;;12.45;4.83;;;;;;;20.99;32.11;101859.00;1908539;75;21122;-60
2023/01/15 09:40:29;;;;;;;14.78;4.78;;;;;;;20.75;31.74;101857.89;1917895;75;21046;-58
2023/01/15 09:43:04;;;;;;;13.60;5.83;;;;;;;20.52;31.79;101856.67;1918312;75;21066;-61
2023/01/15 09:45:41;;;;;;;11.18;5.62;;;;;;;20.62;31.64;101858.70;1884542;76;21074;-59
2023/01/15 09:48:16;;;;;;;14.55;5.87;;;;;;;20.58;31.80;101853.59;1920967;75;21038;-59
2023/01/15 09:50:53;;;;;;;17.80;6.00;;;;;;;20.47;31.54;101856.09;1873296;76;21037;-60
2023/01/15 09:53:34;;;;;;;13.08;4.62;;;;;;;20.48;31.49;101843.12;1897894;75;21122;-57
2023/01/15 09:56:04;;;;;;;15.50;5.85;;;;;;;20.45;31.26;101842.81;1896932;75;21106;-60
2023/01/15 09:58:38;;;;;;;15.00;6.78;;;;;;;20.52;31.22;101840.63;1912790;73;21493;-56
2023/01/15 10:01:09;;;;;;;12.85;5.67;;;;;;;20.38;30.94;101836.13;1898655;75;21137;-53
2023/01/15 10:03:49;;;;;;;16.05;5.92;;;;;;;20.19;31.04;101834.61;1867213;76;21509;-54
2023/01/15 10:06:26;;;;;;;15.25;5.50;;;;;;;20.14;31.04;101835.86;1867343;77;21042;-54
2023/01/15 10:09:10;;;;;;;17.42;6.05;;;;;;;19.94;30.85;101831.73;1888142;74;21525;-54
2023/01/15 10:14:45;;;;;;;11.70;4.60;;;;;;;19.69;30.71;101829.19;1900866;75;21018;-57
2023/01/15 10:17:19;;;;;;;12.63;5.42;;;;;;;19.56;30.61;101824.20;1917289;75;21050;-55
2023/01/15 10:19:48;;;;;;;13.93;4.90;;;;;;;19.53;30.64;101819.92;1865592;74;21054;-54
2023/01/15 10:22:26;;;;;;;9.50;4.70;;;;;;;19.33;30.47;101818.88;1909674;75;21081;-54
2023/01/15 10:24:57;;;;;;;13.70;6.28;;;;;;;19.14;30.57;101818.62;1895554;74;21163;-57
2023/01/15 10:27:31;;;;;;;12.53;4.97;;;;;;;19.18;30.68;101816.64;1953266;73;21097;-54
2023/01/15 10:30:13;;;;;;;10.82;4.90;;;;;;;19.28;30.82;101812.01;1959003;73;21027;-49
2023/01/15 10:32:54;;;;;;;14.50;5.97;;;;;;;19.26;30.59;101811.24;1934209;73;21488;-52
2023/01/15 10:36:00;;;;;;;13.93;4.85;;;;;;;19.27;30.86;101803.63;1921081;75;21002;-55
2023/01/15 10:38:43;;;;;;;12.58;5.47;;;;;;;19.39;30.84;101797.17;1921158;74;21023;-48
2023/01/15 10:41:21;;;;;;;17.90;5.47;;;;;;;19.12;30.65;101799.17;1914856;75;21566;-56
2023/01/15 10:43:52;;;;;;;11.93;4.53;;;;;;;19.13;30.76;101800.91;1854711;77;21054;-49
2023/01/15 10:46:26;;;;;;;14.30;5.45;;;;;;;18.88;30.71;101796.11;1907035;74;21140;-47
2023/01/15 10:49:01;;;;;;;13.53;5.55;;;;;;;19.00;30.90;101802.57;1942471;73;21074;-56
2023/01/15 10:51:49;;;;;;;15.00;5.45;;;;;;;19.39;30.81;101797.17;1925623;73;21035;-53
2023/01/15 10:54:29;;;;;;;14.10;5.22;;;;;;;19.90;30.46;101801.69;1915072;75;21501;-50
2023/01/15 10:57:11;;;;;;;13.00;5.10;;;;;;;19.98;30.48;101806.07;1916572;75;21039;-56
2023/01/15 10:59:54;;;;;;;12.50;4.75;;;;;;;19.89;30.43;101801.30;1901680;73;21001;-56
2023/01/15 11:02:35;;;;;;;11.95;4.95;;;;;;;19.34;31.24;101804.59;1885619;75;21164;-62
2023/01/15 11:05:04;;;;;;;13.20;5.17;;;;;;;18.71;32.09;101797.89;1913647;73;21089;-62
2023/01/15 11:07:48;;;;;;;14.78;5.25;;;;;;;18.84;31.82;101795.42;1917268;75;21103;-62
2023/01/15 11:10:20;;;;;;;12.78;5.15;;;;;;;18.71;31.55;101797.05;1880951;75;21417;-56
2023/01/15 11:21:31;;;;;;;12.70;5.28;;;;;;;17.42;32.88;101794.14;1885765;75;21695;-57
2023/01/15 11:24:00;;;;;;;18.95;7.10;;;;;;;16.70;33.72;101795.02;1862404;77;21577;-59
2023/01/15 11:26:32;;;;;;;14.38;6.40;;;;;;;16.57;33.96;101796.92;1888539;75;21176;-58
2023/01/15 11:29:03;;;;;;;14.80;5.97;;;;;;;15.49;35.30;101803.98;1906007;75;21113;-62
2023/01/15 11:31:39;;;;;;;18.87;6.62;;;;;;;14.52;36.86;101799.48;1900829;75;21102;-61
2023/01/15 11:34:11;;;;;;;13.45;6.03;;;;;;;13.81;37.97;101804.73;1890974;75;21034;-59
2023/01/15 11:36:40;;;;;;;12.18;4.67;;;;;;;13.31;38.86;101804.70;1914555;75;21105;-57
2023/01/15 11:39:27;;;;;;;14.30;5.20;;;;;;;12.94;39.49;101807.20;1917481;75;21504;-64
2023/01/15 11:50:55;;;;;;;13.38;5.10;;;;;;;11.76;41.41;101808.86;1905046;73;21099;-57
2023/01/15 11:53:27;;;;;;;16.12;5.67;;;;;;;11.66;41.41;101807.39;1910185;75;21107;-55
2023/01/15 11:56:05;;;;;;;21.45;5.53;;;;;;;11.43;41.91;101808.83;1911278;75;21133;-58
2023/01/15 11:58:43;;;;;;;14.93;5.65;;;;;;;11.53;41.99;101809.02;1908289;75;21088;-55
2023/01/15 12:01:17;;;;;;;14.95;5.17;;;;;;;11.41;42.21;101806.69;1915930;75;21036;-55
2023/01/15 12:03:46;;;;;;;16.65;5.53;;;;;;;11.23;42.44;101811.95;1893152;73;21007;-55
2023/01/15 12:06:16;;;;;;;16.55;5.65;;;;;;;10.93;42.99;101813.57;1939487;73;21039;-55
2023/01/15 12:08:50;;;;;;;16.40;5.45;;;;;;;10.72;43.50;101806.58;1895323;75;21086;-57
2023/01/15 12:11:51;;;;;;;9.58;5.33;;;;;;;10.57;43.85;101813.06;1877847;76;21084;-57
2023/01/15 12:14:43;;;;;;;14.50;4.75;;;;;;;10.46;44.02;101812.86;1877689;76;21570;-57
2023/01/15 12:17:37;;;;;;;13.18;4.80;;;;;;;10.19;44.33;101809.87;1876492;76;21141;-61
2023/01/15 12:20:15;;;;;;;13.53;4.67;;;;;;;10.02;44.65;101815.03;1779736;78;21227;-57
2023/01/15 12:22:58;;;;;;;14.05;4.60;;;;;;;10.10;44.61;101812.70;1800104;80;21082;-58
2023/01/15 12:25:36;;;;;;;14.85;4.83;;;;;;;10.04;44.58;101824.22;1874299;74;21409;-56
2023/01/15 12:28:16;;;;;;;9.85;3.85;;;;;;;9.89;44.80;101820.12;1926387;74;21039;-57
2023/01/15 12:31:05;;;;;;;10.65;3.87;;;;;;;9.73;45.14;101822.61;1916733;74;21362;-57